Terminal Aerodrome Forecast
Issued by NWS Burlington, VT

Home | Current Version | Previous Version | Text Only | Print | Product List | Glossary On
Versions: 1 2 3 4 5 6 7 8 9 10 11 12 13 14 15
000
FTUS41 KBTV 221700
TAFBTV
TAF
KBTV 221722Z 2218/2318 16006KT P6SM VCSH OVC040
     FM222200 17008KT P6SM BKN050
     FM230700 VRB03KT P6SM SCT012 OVC025
     FM231300 30004KT P6SM SCT050=

USA.gov is the U.S. government's official web portal to all federal, state and local government web resources and services.